Torreón, COA, Mexico
Current Conditions -  °F | °C
As of 7:44 AM on Monday 20 Oct 2014 (Local Time) from MMTC Reporting Station
Scattered Clouds Scattered Clouds  
Wind Chill: 63°   Ceiling: Unl
Heat Index: 63°   Visibility: 10mi
Dew Point: 57°   Wind: 0mph
Humidity: 82%   Direction: NA
Pressure: 30.01"   Gusts: NA
Location:  25.54445°N, 103.4417°W
Report Text: MMTC 201244Z 00000KT 10SM SCT110 17/14 A3001 RMK 8/070 SC W
Loading
Personal Weather Stations






























Interactive Weather Map
Tropical Storm Tracking
New forecast layout! Learn more

10-Day Weather Forecast

Advertisements
Track Severe Weather on mobile